sensor_id;sensor_type;location;lat;lon;timestamp;P1;durP1;ratioP1;P2;durP2;ratioP2
8230;SDS011;4156;50.908;6.974;2022-11-13T00:01:16;6.37;;;5.13;;
8230;SDS011;4156;50.908;6.974;2022-11-13T00:03:43;7.00;;;5.03;;
8230;SDS011;4156;50.908;6.974;2022-11-13T00:06:09;6.53;;;5.20;;
8230;SDS011;4156;50.908;6.974;2022-11-13T00:08:36;5.23;;;4.47;;
8230;SDS011;4156;50.908;6.974;2022-11-13T00:11:07;6.37;;;5.00;;
8230;SDS011;4156;50.908;6.974;2022-11-13T00:13:35;6.80;;;4.77;;
8230;SDS011;4156;50.908;6.974;2022-11-13T00:16:01;7.53;;;4.70;;
8230;SDS011;4156;50.908;6.974;2022-11-13T00:18:29;5.57;;;4.53;;
8230;SDS011;4156;50.908;6.974;2022-11-13T00:20:56;6.27;;;4.87;;
8230;SDS011;4156;50.908;6.974;2022-11-13T00:23:22;7.43;;;4.97;;
8230;SDS011;4156;50.908;6.974;2022-11-13T00:25:48;6.57;;;4.83;;
8230;SDS011;4156;50.908;6.974;2022-11-13T00:28:14;5.37;;;4.20;;
8230;SDS011;4156;50.908;6.974;2022-11-13T00:30:40;6.37;;;4.83;;
8230;SDS011;4156;50.908;6.974;2022-11-13T00:33:05;6.33;;;5.00;;
8230;SDS011;4156;50.908;6.974;2022-11-13T00:35:32;6.33;;;4.97;;
8230;SDS011;4156;50.908;6.974;2022-11-13T00:37:57;6.43;;;5.03;;
8230;SDS011;4156;50.908;6.974;2022-11-13T00:40:23;6.77;;;5.00;;
8230;SDS011;4156;50.908;6.974;2022-11-13T00:42:48;7.50;;;5.03;;
8230;SDS011;4156;50.908;6.974;2022-11-13T00:45:14;7.97;;;5.20;;
8230;SDS011;4156;50.908;6.974;2022-11-13T00:47:40;5.77;;;4.43;;
8230;SDS011;4156;50.908;6.974;2022-11-13T00:50:05;5.83;;;4.83;;
8230;SDS011;4156;50.908;6.974;2022-11-13T00:52:31;6.83;;;4.97;;
8230;SDS011;4156;50.908;6.974;2022-11-13T00:54:57;5.17;;;4.40;;
8230;SDS011;4156;50.908;6.974;2022-11-13T00:57:23;6.37;;;4.93;;
8230;SDS011;4156;50.908;6.974;2022-11-13T00:59:48;6.30;;;4.83;;
8230;SDS011;4156;50.908;6.974;2022-11-13T01:02:14;6.70;;;4.80;;
8230;SDS011;4156;50.908;6.974;2022-11-13T01:04:40;6.53;;;4.97;;
8230;SDS011;4156;50.908;6.974;2022-11-13T01:07:06;5.80;;;4.80;;
8230;SDS011;4156;50.908;6.974;2022-11-13T01:09:32;5.63;;;4.87;;
8230;SDS011;4156;50.908;6.974;2022-11-13T01:11:57;6.50;;;4.97;;
8230;SDS011;4156;50.908;6.974;2022-11-13T01:14:23;5.73;;;4.63;;
8230;SDS011;4156;50.908;6.974;2022-11-13T01:16:49;5.50;;;4.77;;
8230;SDS011;4156;50.908;6.974;2022-11-13T01:19:14;6.13;;;5.00;;
8230;SDS011;4156;50.908;6.974;2022-11-13T01:21:40;6.77;;;4.93;;
8230;SDS011;4156;50.908;6.974;2022-11-13T01:24:05;7.17;;;4.77;;
8230;SDS011;4156;50.908;6.974;2022-11-13T01:26:31;7.13;;;4.63;;
8230;SDS011;4156;50.908;6.974;2022-11-13T01:28:57;6.10;;;4.50;;
8230;SDS011;4156;50.908;6.974;2022-11-13T01:31:25;6.20;;;4.73;;
8230;SDS011;4156;50.908;6.974;2022-11-13T01:33:55;5.63;;;4.80;;
8230;SDS011;4156;50.908;6.974;2022-11-13T01:36:22;7.27;;;5.03;;
8230;SDS011;4156;50.908;6.974;2022-11-13T01:38:49;6.93;;;5.10;;
8230;SDS011;4156;50.908;6.974;2022-11-13T01:41:19;5.47;;;4.53;;
8230;SDS011;4156;50.908;6.974;2022-11-13T01:43:48;6.17;;;5.03;;
8230;SDS011;4156;50.908;6.974;2022-11-13T01:48:53;5.87;;;4.80;;
8230;SDS011;4156;50.908;6.974;2022-11-13T01:51:37;7.30;;;4.67;;
8230;SDS011;4156;50.908;6.974;2022-11-13T01:54:07;6.50;;;5.03;;
8230;SDS011;4156;50.908;6.974;2022-11-13T01:56:36;5.20;;;4.47;;
8230;SDS011;4156;50.908;6.974;2022-11-13T01:59:04;5.73;;;4.90;;
8230;SDS011;4156;50.908;6.974;2022-11-13T02:01:36;6.90;;;5.07;;
8230;SDS011;4156;50.908;6.974;2022-11-13T02:04:02;7.07;;;4.70;;
8230;SDS011;4156;50.908;6.974;2022-11-13T02:06:29;5.87;;;4.67;;
8230;SDS011;4156;50.908;6.974;2022-11-13T02:09:00;6.00;;;5.07;;
8230;SDS011;4156;50.908;6.974;2022-11-13T02:11:26;5.87;;;5.03;;
8230;SDS011;4156;50.908;6.974;2022-11-13T02:13:52;6.90;;;5.20;;
8230;SDS011;4156;50.908;6.974;2022-11-13T02:16:18;5.00;;;4.50;;
8230;SDS011;4156;50.908;6.974;2022-11-13T02:18:45;6.00;;;5.07;;
8230;SDS011;4156;50.908;6.974;2022-11-13T02:23:52;6.47;;;5.00;;
8230;SDS011;4156;50.908;6.974;2022-11-13T02:26:34;5.83;;;5.00;;
8230;SDS011;4156;50.908;6.974;2022-11-13T02:29:01;6.67;;;4.67;;
8230;SDS011;4156;50.908;6.974;2022-11-13T02:31:27;6.77;;;4.97;;
8230;SDS011;4156;50.908;6.974;2022-11-13T02:33:52;5.30;;;4.80;;
8230;SDS011;4156;50.908;6.974;2022-11-13T02:36:18;6.27;;;5.43;;
8230;SDS011;4156;50.908;6.974;2022-11-13T02:38:45;7.23;;;5.60;;
8230;SDS011;4156;50.908;6.974;2022-11-13T02:41:11;6.73;;;5.20;;
8230;SDS011;4156;50.908;6.974;2022-11-13T02:43:37;6.50;;;5.27;;
8230;SDS011;4156;50.908;6.974;2022-11-13T02:46:02;6.20;;;4.90;;
8230;SDS011;4156;50.908;6.974;2022-11-13T02:48:28;7.60;;;6.10;;
8230;SDS011;4156;50.908;6.974;2022-11-13T02:50:53;6.90;;;5.37;;
8230;SDS011;4156;50.908;6.974;2022-11-13T02:53:19;6.23;;;5.33;;
8230;SDS011;4156;50.908;6.974;2022-11-13T02:55:45;6.37;;;5.00;;
8230;SDS011;4156;50.908;6.974;2022-11-13T02:58:10;7.17;;;4.90;;
8230;SDS011;4156;50.908;6.974;2022-11-13T03:00:36;7.03;;;5.27;;
8230;SDS011;4156;50.908;6.974;2022-11-13T03:03:01;6.37;;;5.00;;
8230;SDS011;4156;50.908;6.974;2022-11-13T03:05:27;6.00;;;4.97;;
8230;SDS011;4156;50.908;6.974;2022-11-13T03:07:52;6.60;;;4.97;;
8230;SDS011;4156;50.908;6.974;2022-11-13T03:10:18;6.43;;;5.00;;
8230;SDS011;4156;50.908;6.974;2022-11-13T03:12:43;6.20;;;4.90;;
8230;SDS011;4156;50.908;6.974;2022-11-13T03:15:09;5.70;;;5.00;;
8230;SDS011;4156;50.908;6.974;2022-11-13T03:17:35;7.13;;;5.20;;
8230;SDS011;4156;50.908;6.974;2022-11-13T03:20:00;5.90;;;4.90;;
8230;SDS011;4156;50.908;6.974;2022-11-13T03:22:26;7.43;;;5.23;;
8230;SDS011;4156;50.908;6.974;2022-11-13T03:24:52;6.73;;;5.00;;
8230;SDS011;4156;50.908;6.974;2022-11-13T03:27:17;6.17;;;5.07;;
8230;SDS011;4156;50.908;6.974;2022-11-13T03:29:43;6.90;;;5.07;;
8230;SDS011;4156;50.908;6.974;2022-11-13T03:32:09;6.60;;;5.00;;
8230;SDS011;4156;50.908;6.974;2022-11-13T03:34:34;6.33;;;4.97;;
8230;SDS011;4156;50.908;6.974;2022-11-13T03:37:00;6.27;;;5.17;;
8230;SDS011;4156;50.908;6.974;2022-11-13T03:39:25;6.97;;;5.00;;
8230;SDS011;4156;50.908;6.974;2022-11-13T03:41:51;8.37;;;5.77;;
8230;SDS011;4156;50.908;6.974;2022-11-13T03:44:16;5.77;;;4.83;;
8230;SDS011;4156;50.908;6.974;2022-11-13T03:46:42;6.07;;;5.20;;
8230;SDS011;4156;50.908;6.974;2022-11-13T03:49:07;6.50;;;5.23;;
8230;SDS011;4156;50.908;6.974;2022-11-13T03:51:33;7.30;;;5.13;;
8230;SDS011;4156;50.908;6.974;2022-11-13T03:53:58;5.93;;;4.97;;
8230;SDS011;4156;50.908;6.974;2022-11-13T03:56:24;7.70;;;5.07;;
8230;SDS011;4156;50.908;6.974;2022-11-13T03:58:50;7.73;;;5.53;;
8230;SDS011;4156;50.908;6.974;2022-11-13T04:01:15;7.00;;;5.30;;
8230;SDS011;4156;50.908;6.974;2022-11-13T04:03:41;7.30;;;5.00;;
8230;SDS011;4156;50.908;6.974;2022-11-13T04:06:06;5.30;;;4.73;;
8230;SDS011;4156;50.908;6.974;2022-11-13T04:08:32;6.30;;;5.00;;
8230;SDS011;4156;50.908;6.974;2022-11-13T04:11:04;6.00;;;5.00;;
8230;SDS011;4156;50.908;6.974;2022-11-13T04:13:34;6.53;;;4.77;;
8230;SDS011;4156;50.908;6.974;2022-11-13T04:15:59;6.47;;;4.90;;
8230;SDS011;4156;50.908;6.974;2022-11-13T04:18:25;7.00;;;4.53;;
8230;SDS011;4156;50.908;6.974;2022-11-13T04:20:51;7.20;;;4.80;;
8230;SDS011;4156;50.908;6.974;2022-11-13T04:23:16;7.20;;;5.50;;
8230;SDS011;4156;50.908;6.974;2022-11-13T04:25:42;6.17;;;4.30;;
8230;SDS011;4156;50.908;6.974;2022-11-13T04:28:08;6.50;;;4.40;;
8230;SDS011;4156;50.908;6.974;2022-11-13T04:30:34;7.73;;;5.23;;
8230;SDS011;4156;50.908;6.974;2022-11-13T04:33:00;6.00;;;4.13;;
8230;SDS011;4156;50.908;6.974;2022-11-13T04:35:25;6.07;;;4.40;;
8230;SDS011;4156;50.908;6.974;2022-11-13T04:37:51;6.43;;;4.73;;
8230;SDS011;4156;50.908;6.974;2022-11-13T04:40:17;4.87;;;4.37;;
8230;SDS011;4156;50.908;6.974;2022-11-13T04:42:43;5.80;;;4.70;;
8230;SDS011;4156;50.908;6.974;2022-11-13T04:45:15;6.03;;;5.23;;
8230;SDS011;4156;50.908;6.974;2022-11-13T04:47:45;5.60;;;4.03;;
8230;SDS011;4156;50.908;6.974;2022-11-13T04:50:11;5.27;;;4.40;;
8230;SDS011;4156;50.908;6.974;2022-11-13T04:52:38;7.20;;;4.20;;
8230;SDS011;4156;50.908;6.974;2022-11-13T04:55:04;5.40;;;4.33;;
8230;SDS011;4156;50.908;6.974;2022-11-13T04:57:30;5.17;;;3.83;;
8230;SDS011;4156;50.908;6.974;2022-11-13T04:59:55;7.20;;;5.27;;
8230;SDS011;4156;50.908;6.974;2022-11-13T05:02:21;5.10;;;4.07;;
8230;SDS011;4156;50.908;6.974;2022-11-13T05:04:47;6.67;;;4.10;;
8230;SDS011;4156;50.908;6.974;2022-11-13T05:07:12;5.60;;;4.10;;
8230;SDS011;4156;50.908;6.974;2022-11-13T05:09:38;5.10;;;4.13;;
8230;SDS011;4156;50.908;6.974;2022-11-13T05:12:03;5.03;;;4.07;;
8230;SDS011;4156;50.908;6.974;2022-11-13T05:14:32;5.67;;;4.07;;
8230;SDS011;4156;50.908;6.974;2022-11-13T05:16:59;5.27;;;4.17;;
8230;SDS011;4156;50.908;6.974;2022-11-13T05:19:24;7.43;;;4.47;;
8230;SDS011;4156;50.908;6.974;2022-11-13T05:21:50;6.10;;;4.47;;
8230;SDS011;4156;50.908;6.974;2022-11-13T05:24:15;5.00;;;4.33;;
8230;SDS011;4156;50.908;6.974;2022-11-13T05:26:41;6.47;;;4.43;;
8230;SDS011;4156;50.908;6.974;2022-11-13T05:29:06;4.57;;;3.90;;
8230;SDS011;4156;50.908;6.974;2022-11-13T05:31:32;4.70;;;4.00;;
8230;SDS011;4156;50.908;6.974;2022-11-13T05:33:57;6.90;;;4.43;;
8230;SDS011;4156;50.908;6.974;2022-11-13T05:36:23;5.07;;;3.60;;
8230;SDS011;4156;50.908;6.974;2022-11-13T05:38:48;5.47;;;4.47;;
8230;SDS011;4156;50.908;6.974;2022-11-13T05:41:15;5.37;;;4.27;;
8230;SDS011;4156;50.908;6.974;2022-11-13T05:43:45;6.33;;;4.20;;
8230;SDS011;4156;50.908;6.974;2022-11-13T05:46:19;5.03;;;3.90;;
8230;SDS011;4156;50.908;6.974;2022-11-13T05:48:47;5.10;;;3.57;;
8230;SDS011;4156;50.908;6.974;2022-11-13T05:51:17;5.37;;;4.03;;
8230;SDS011;4156;50.908;6.974;2022-11-13T05:53:44;4.67;;;4.00;;
8230;SDS011;4156;50.908;6.974;2022-11-13T05:56:11;5.57;;;4.30;;
8230;SDS011;4156;50.908;6.974;2022-11-13T05:58:44;7.47;;;4.03;;
8230;SDS011;4156;50.908;6.974;2022-11-13T06:01:12;5.13;;;4.10;;
8230;SDS011;4156;50.908;6.974;2022-11-13T06:03:43;5.57;;;3.97;;
8230;SDS011;4156;50.908;6.974;2022-11-13T06:06:11;5.10;;;3.87;;
8230;SDS011;4156;50.908;6.974;2022-11-13T06:08:42;5.90;;;3.80;;
8230;SDS011;4156;50.908;6.974;2022-11-13T06:11:09;5.27;;;4.03;;
8230;SDS011;4156;50.908;6.974;2022-11-13T06:13:37;4.70;;;3.83;;
8230;SDS011;4156;50.908;6.974;2022-11-13T06:16:04;6.20;;;4.20;;
8230;SDS011;4156;50.908;6.974;2022-11-13T06:18:34;5.00;;;3.90;;
8230;SDS011;4156;50.908;6.974;2022-11-13T06:21:01;5.77;;;3.97;;
8230;SDS011;4156;50.908;6.974;2022-11-13T06:23:28;5.67;;;4.20;;
8230;SDS011;4156;50.908;6.974;2022-11-13T06:25:59;4.33;;;3.57;;
8230;SDS011;4156;50.908;6.974;2022-11-13T06:28:29;4.40;;;3.67;;
8230;SDS011;4156;50.908;6.974;2022-11-13T06:31:00;5.50;;;4.30;;
8230;SDS011;4156;50.908;6.974;2022-11-13T06:33:30;4.97;;;3.13;;
8230;SDS011;4156;50.908;6.974;2022-11-13T06:35:56;4.43;;;3.77;;
8230;SDS011;4156;50.908;6.974;2022-11-13T06:38:21;5.50;;;3.53;;
8230;SDS011;4156;50.908;6.974;2022-11-13T06:40:47;3.93;;;3.53;;
8230;SDS011;4156;50.908;6.974;2022-11-13T06:43:12;4.60;;;3.73;;
8230;SDS011;4156;50.908;6.974;2022-11-13T06:45:38;3.80;;;3.20;;
8230;SDS011;4156;50.908;6.974;2022-11-13T06:48:03;5.57;;;3.43;;
8230;SDS011;4156;50.908;6.974;2022-11-13T06:50:29;4.47;;;3.47;;
8230;SDS011;4156;50.908;6.974;2022-11-13T06:52:55;5.63;;;3.87;;
8230;SDS011;4156;50.908;6.974;2022-11-13T06:55:20;4.50;;;3.30;;
8230;SDS011;4156;50.908;6.974;2022-11-13T06:57:46;6.30;;;3.87;;
8230;SDS011;4156;50.908;6.974;2022-11-13T07:00:11;3.67;;;3.10;;
8230;SDS011;4156;50.908;6.974;2022-11-13T07:02:37;3.97;;;3.40;;
8230;SDS011;4156;50.908;6.974;2022-11-13T07:05:03;4.33;;;3.13;;
8230;SDS011;4156;50.908;6.974;2022-11-13T07:07:29;3.80;;;3.27;;
8230;SDS011;4156;50.908;6.974;2022-11-13T07:09:54;5.67;;;3.20;;
8230;SDS011;4156;50.908;6.974;2022-11-13T07:12:19;3.77;;;2.97;;
8230;SDS011;4156;50.908;6.974;2022-11-13T07:14:45;4.37;;;3.17;;
8230;SDS011;4156;50.908;6.974;2022-11-13T07:17:10;3.97;;;3.57;;
8230;SDS011;4156;50.908;6.974;2022-11-13T07:19:36;3.60;;;2.90;;
8230;SDS011;4156;50.908;6.974;2022-11-13T07:22:01;4.80;;;3.13;;
8230;SDS011;4156;50.908;6.974;2022-11-13T07:24:27;3.63;;;2.93;;
8230;SDS011;4156;50.908;6.974;2022-11-13T07:26:52;5.57;;;3.70;;
8230;SDS011;4156;50.908;6.974;2022-11-13T07:29:18;3.80;;;3.13;;
8230;SDS011;4156;50.908;6.974;2022-11-13T07:31:43;4.13;;;2.90;;
8230;SDS011;4156;50.908;6.974;2022-11-13T07:34:09;4.20;;;3.03;;
8230;SDS011;4156;50.908;6.974;2022-11-13T07:36:34;4.20;;;3.17;;
8230;SDS011;4156;50.908;6.974;2022-11-13T07:39:00;4.10;;;3.10;;
8230;SDS011;4156;50.908;6.974;2022-11-13T07:41:25;3.90;;;3.47;;
8230;SDS011;4156;50.908;6.974;2022-11-13T07:43:51;4.27;;;3.17;;
8230;SDS011;4156;50.908;6.974;2022-11-13T07:46:16;3.70;;;2.57;;
8230;SDS011;4156;50.908;6.974;2022-11-13T07:48:42;4.30;;;3.27;;
8230;SDS011;4156;50.908;6.974;2022-11-13T07:51:07;3.97;;;3.30;;
8230;SDS011;4156;50.908;6.974;2022-11-13T07:53:33;4.27;;;3.27;;
8230;SDS011;4156;50.908;6.974;2022-11-13T07:56:00;3.90;;;3.20;;
8230;SDS011;4156;50.908;6.974;2022-11-13T07:58:26;3.60;;;3.07;;
8230;SDS011;4156;50.908;6.974;2022-11-13T08:00:52;3.93;;;3.40;;
8230;SDS011;4156;50.908;6.974;2022-11-13T08:03:18;4.00;;;3.10;;
8230;SDS011;4156;50.908;6.974;2022-11-13T08:05:43;3.63;;;3.00;;
8230;SDS011;4156;50.908;6.974;2022-11-13T08:08:13;5.07;;;3.37;;
8230;SDS011;4156;50.908;6.974;2022-11-13T08:10:39;4.43;;;3.80;;
8230;SDS011;4156;50.908;6.974;2022-11-13T08:13:06;3.80;;;3.10;;
8230;SDS011;4156;50.908;6.974;2022-11-13T08:15:33;3.53;;;3.00;;
8230;SDS011;4156;50.908;6.974;2022-11-13T08:17:59;4.23;;;3.00;;
8230;SDS011;4156;50.908;6.974;2022-11-13T08:20:27;4.57;;;3.63;;
8230;SDS011;4156;50.908;6.974;2022-11-13T08:22:56;3.97;;;3.13;;
8230;SDS011;4156;50.908;6.974;2022-11-13T08:25:23;6.97;;;3.30;;
8230;SDS011;4156;50.908;6.974;2022-11-13T08:27:50;5.10;;;3.17;;
8230;SDS011;4156;50.908;6.974;2022-11-13T08:30:17;3.83;;;3.23;;
8230;SDS011;4156;50.908;6.974;2022-11-13T08:32:43;3.63;;;3.30;;
8230;SDS011;4156;50.908;6.974;2022-11-13T08:35:08;3.80;;;3.00;;
8230;SDS011;4156;50.908;6.974;2022-11-13T08:37:34;4.27;;;3.17;;
8230;SDS011;4156;50.908;6.974;2022-11-13T08:39:59;4.23;;;3.20;;
8230;SDS011;4156;50.908;6.974;2022-11-13T08:42:25;8.37;;;2.90;;
8230;SDS011;4156;50.908;6.974;2022-11-13T08:44:50;4.30;;;3.60;;
8230;SDS011;4156;50.908;6.974;2022-11-13T08:47:16;4.13;;;2.90;;
8230;SDS011;4156;50.908;6.974;2022-11-13T08:49:41;3.50;;;2.60;;
8230;SDS011;4156;50.908;6.974;2022-11-13T08:52:07;3.27;;;2.80;;
8230;SDS011;4156;50.908;6.974;2022-11-13T08:54:33;3.93;;;2.97;;
8230;SDS011;4156;50.908;6.974;2022-11-13T08:56:58;3.13;;;2.53;;
8230;SDS011;4156;50.908;6.974;2022-11-13T08:59:24;4.03;;;3.20;;
8230;SDS011;4156;50.908;6.974;2022-11-13T09:01:51;3.50;;;2.80;;
8230;SDS011;4156;50.908;6.974;2022-11-13T09:04:22;3.77;;;2.97;;
8230;SDS011;4156;50.908;6.974;2022-11-13T09:06:49;4.80;;;2.90;;
8230;SDS011;4156;50.908;6.974;2022-11-13T09:09:14;3.33;;;2.90;;
8230;SDS011;4156;50.908;6.974;2022-11-13T09:11:40;3.77;;;2.47;;
8230;SDS011;4156;50.908;6.974;2022-11-13T09:14:05;3.20;;;2.50;;
8230;SDS011;4156;50.908;6.974;2022-11-13T09:16:31;5.30;;;3.23;;
8230;SDS011;4156;50.908;6.974;2022-11-13T09:18:56;3.33;;;3.00;;
8230;SDS011;4156;50.908;6.974;2022-11-13T09:21:22;3.13;;;2.53;;
8230;SDS011;4156;50.908;6.974;2022-11-13T09:23:47;4.13;;;2.80;;
8230;SDS011;4156;50.908;6.974;2022-11-13T09:26:13;3.50;;;2.73;;
8230;SDS011;4156;50.908;6.974;2022-11-13T09:28:38;3.57;;;2.47;;
8230;SDS011;4156;50.908;6.974;2022-11-13T09:31:05;3.43;;;2.50;;
8230;SDS011;4156;50.908;6.974;2022-11-13T09:33:31;4.33;;;2.70;;
8230;SDS011;4156;50.908;6.974;2022-11-13T09:35:57;2.60;;;2.40;;
8230;SDS011;4156;50.908;6.974;2022-11-13T09:38:22;3.17;;;2.50;;
8230;SDS011;4156;50.908;6.974;2022-11-13T09:40:56;3.03;;;2.43;;
8230;SDS011;4156;50.908;6.974;2022-11-13T09:43:39;2.40;;;2.20;;
8230;SDS011;4156;50.908;6.974;2022-11-13T09:46:19;2.63;;;2.23;;
8230;SDS011;4156;50.908;6.974;2022-11-13T09:49:12;4.10;;;2.90;;
8230;SDS011;4156;50.908;6.974;2022-11-13T09:51:40;2.67;;;2.43;;
8230;SDS011;4156;50.908;6.974;2022-11-13T09:54:15;2.97;;;2.30;;
8230;SDS011;4156;50.908;6.974;2022-11-13T09:56:42;3.17;;;2.40;;
8230;SDS011;4156;50.908;6.974;2022-11-13T09:59:28;3.33;;;2.50;;
8230;SDS011;4156;50.908;6.974;2022-11-13T10:02:20;2.50;;;2.20;;
8230;SDS011;4156;50.908;6.974;2022-11-13T10:05:03;2.33;;;2.10;;
8230;SDS011;4156;50.908;6.974;2022-11-13T10:07:47;3.40;;;2.70;;
8230;SDS011;4156;50.908;6.974;2022-11-13T10:10:26;2.30;;;2.07;;
8230;SDS011;4156;50.908;6.974;2022-11-13T10:13:12;2.87;;;2.30;;
8230;SDS011;4156;50.908;6.974;2022-11-13T10:15:41;2.87;;;2.17;;
8230;SDS011;4156;50.908;6.974;2022-11-13T10:18:11;2.73;;;2.23;;
8230;SDS011;4156;50.908;6.974;2022-11-13T10:20:38;3.10;;;2.30;;
8230;SDS011;4156;50.908;6.974;2022-11-13T10:25:44;2.37;;;2.00;;
8230;SDS011;4156;50.908;6.974;2022-11-13T10:28:18;2.73;;;2.20;;
8230;SDS011;4156;50.908;6.974;2022-11-13T10:30:47;3.50;;;2.10;;
8230;SDS011;4156;50.908;6.974;2022-11-13T10:33:17;3.43;;;2.20;;
8230;SDS011;4156;50.908;6.974;2022-11-13T10:35:56;3.27;;;2.00;;
8230;SDS011;4156;50.908;6.974;2022-11-13T10:38:32;2.90;;;2.20;;
8230;SDS011;4156;50.908;6.974;2022-11-13T10:41:16;2.50;;;2.10;;
8230;SDS011;4156;50.908;6.974;2022-11-13T10:46:30;3.27;;;2.40;;
8230;SDS011;4156;50.908;6.974;2022-11-13T10:48:57;2.73;;;1.90;;
8230;SDS011;4156;50.908;6.974;2022-11-13T10:51:30;2.37;;;2.17;;
8230;SDS011;4156;50.908;6.974;2022-11-13T10:53:59;4.20;;;2.00;;
8230;SDS011;4156;50.908;6.974;2022-11-13T10:56:26;2.37;;;1.93;;
8230;SDS011;4156;50.908;6.974;2022-11-13T10:59:00;2.50;;;2.00;;
8230;SDS011;4156;50.908;6.974;2022-11-13T11:01:41;3.00;;;2.40;;
8230;SDS011;4156;50.908;6.974;2022-11-13T11:04:25;2.43;;;1.90;;
8230;SDS011;4156;50.908;6.974;2022-11-13T11:06:54;2.17;;;1.93;;
8230;SDS011;4156;50.908;6.974;2022-11-13T11:09:24;1.90;;;1.70;;
8230;SDS011;4156;50.908;6.974;2022-11-13T11:11:58;2.13;;;1.80;;
8230;SDS011;4156;50.908;6.974;2022-11-13T11:17:17;2.50;;;1.83;;
8230;SDS011;4156;50.908;6.974;2022-11-13T11:19:46;3.40;;;1.83;;
8230;SDS011;4156;50.908;6.974;2022-11-13T11:22:21;2.87;;;1.93;;
8230;SDS011;4156;50.908;6.974;2022-11-13T11:24:54;2.57;;;2.00;;
8230;SDS011;4156;50.908;6.974;2022-11-13T11:27:32;2.27;;;1.80;;
8230;SDS011;4156;50.908;6.974;2022-11-13T11:30:06;2.80;;;2.07;;
8230;SDS011;4156;50.908;6.974;2022-11-13T11:32:48;2.63;;;2.07;;
8230;SDS011;4156;50.908;6.974;2022-11-13T11:35:21;2.80;;;2.10;;
8230;SDS011;4156;50.908;6.974;2022-11-13T11:41:12;2.30;;;1.93;;
8230;SDS011;4156;50.908;6.974;2022-11-13T11:46:11;2.97;;;2.13;;
8230;SDS011;4156;50.908;6.974;2022-11-13T11:48:38;2.47;;;2.00;;
8230;SDS011;4156;50.908;6.974;2022-11-13T11:53:56;2.10;;;1.90;;
8230;SDS011;4156;50.908;6.974;2022-11-13T11:56:57;2.10;;;1.90;;
8230;SDS011;4156;50.908;6.974;2022-11-13T11:59:40;2.23;;;1.90;;
8230;SDS011;4156;50.908;6.974;2022-11-13T12:02:32;2.50;;;2.27;;
8230;SDS011;4156;50.908;6.974;2022-11-13T12:05:22;2.77;;;2.00;;
8230;SDS011;4156;50.908;6.974;2022-11-13T12:11:11;1.70;;;1.60;;
8230;SDS011;4156;50.908;6.974;2022-11-13T12:21:23;2.43;;;2.10;;
8230;SDS011;4156;50.908;6.974;2022-11-13T12:24:16;2.50;;;1.80;;
8230;SDS011;4156;50.908;6.974;2022-11-13T12:27:06;2.57;;;2.00;;
8230;SDS011;4156;50.908;6.974;2022-11-13T12:30:21;2.30;;;1.90;;
8230;SDS011;4156;50.908;6.974;2022-11-13T12:32:45;2.43;;;2.00;;
8230;SDS011;4156;50.908;6.974;2022-11-13T12:35:22;3.37;;;2.00;;
8230;SDS011;4156;50.908;6.974;2022-11-13T12:37:51;2.77;;;1.90;;
8230;SDS011;4156;50.908;6.974;2022-11-13T12:45:55;2.13;;;1.93;;
8230;SDS011;4156;50.908;6.974;2022-11-13T12:48:35;2.90;;;1.73;;
8230;SDS011;4156;50.908;6.974;2022-11-13T12:51:06;2.23;;;1.83;;
8230;SDS011;4156;50.908;6.974;2022-11-13T12:56:28;1.67;;;1.57;;
8230;SDS011;4156;50.908;6.974;2022-11-13T12:58:59;1.77;;;1.57;;
8230;SDS011;4156;50.908;6.974;2022-11-13T13:01:41;2.77;;;1.80;;
8230;SDS011;4156;50.908;6.974;2022-11-13T13:07:39;2.10;;;1.80;;
8230;SDS011;4156;50.908;6.974;2022-11-13T13:16:03;2.40;;;1.90;;
8230;SDS011;4156;50.908;6.974;2022-11-13T13:18:35;2.17;;;1.80;;
8230;SDS011;4156;50.908;6.974;2022-11-13T13:21:06;1.70;;;1.60;;
8230;SDS011;4156;50.908;6.974;2022-11-13T13:23:37;1.70;;;1.53;;
8230;SDS011;4156;50.908;6.974;2022-11-13T13:26:18;2.43;;;1.80;;
8230;SDS011;4156;50.908;6.974;2022-11-13T13:34:19;2.03;;;1.60;;
8230;SDS011;4156;50.908;6.974;2022-11-13T13:40:10;1.93;;;1.73;;
8230;SDS011;4156;50.908;6.974;2022-11-13T13:43:04;2.47;;;1.80;;
8230;SDS011;4156;50.908;6.974;2022-11-13T13:48:38;1.80;;;1.70;;
8230;SDS011;4156;50.908;6.974;2022-11-13T13:51:49;2.23;;;1.90;;
8230;SDS011;4156;50.908;6.974;2022-11-13T13:53:58;2.13;;;1.80;;
8230;SDS011;4156;50.908;6.974;2022-11-13T13:56:25;1.77;;;1.60;;
8230;SDS011;4156;50.908;6.974;2022-11-13T13:58:51;2.70;;;1.90;;
8230;SDS011;4156;50.908;6.974;2022-11-13T14:01:30;2.67;;;1.67;;
8230;SDS011;4156;50.908;6.974;2022-11-13T14:04:14;2.37;;;1.80;;
8230;SDS011;4156;50.908;6.974;2022-11-13T14:06:47;3.27;;;1.90;;
8230;SDS011;4156;50.908;6.974;2022-11-13T14:09:18;2.00;;;1.80;;
8230;SDS011;4156;50.908;6.974;2022-11-13T14:11:45;1.80;;;1.60;;
8230;SDS011;4156;50.908;6.974;2022-11-13T14:14:18;2.53;;;2.00;;
8230;SDS011;4156;50.908;6.974;2022-11-13T14:16:45;2.17;;;1.60;;
8230;SDS011;4156;50.908;6.974;2022-11-13T14:19:15;1.90;;;1.70;;
8230;SDS011;4156;50.908;6.974;2022-11-13T14:21:45;2.00;;;1.80;;
8230;SDS011;4156;50.908;6.974;2022-11-13T14:26:57;3.00;;;1.93;;
8230;SDS011;4156;50.908;6.974;2022-11-13T14:29:31;2.03;;;1.83;;
8230;SDS011;4156;50.908;6.974;2022-11-13T14:32:03;1.77;;;1.60;;
8230;SDS011;4156;50.908;6.974;2022-11-13T14:34:33;2.50;;;1.90;;
8230;SDS011;4156;50.908;6.974;2022-11-13T14:39:38;2.23;;;1.80;;
8230;SDS011;4156;50.908;6.974;2022-11-13T14:42:03;2.40;;;1.87;;
8230;SDS011;4156;50.908;6.974;2022-11-13T14:44:33;2.07;;;1.83;;
8230;SDS011;4156;50.908;6.974;2022-11-13T14:47:00;1.90;;;1.70;;
8230;SDS011;4156;50.908;6.974;2022-11-13T14:51:58;2.13;;;1.80;;
8230;SDS011;4156;50.908;6.974;2022-11-13T14:54:29;2.30;;;2.10;;
8230;SDS011;4156;50.908;6.974;2022-11-13T14:57:10;3.37;;;2.40;;
8230;SDS011;4156;50.908;6.974;2022-11-13T14:59:37;1.83;;;1.63;;
8230;SDS011;4156;50.908;6.974;2022-11-13T15:02:05;2.40;;;1.90;;
8230;SDS011;4156;50.908;6.974;2022-11-13T15:04:31;2.70;;;2.00;;
8230;SDS011;4156;50.908;6.974;2022-11-13T15:06:57;2.73;;;2.27;;
8230;SDS011;4156;50.908;6.974;2022-11-13T15:09:25;3.67;;;2.20;;
8230;SDS011;4156;50.908;6.974;2022-11-13T15:11:51;3.13;;;2.10;;
8230;SDS011;4156;50.908;6.974;2022-11-13T15:14:17;3.13;;;2.40;;
8230;SDS011;4156;50.908;6.974;2022-11-13T15:16:44;2.37;;;2.03;;
8230;SDS011;4156;50.908;6.974;2022-11-13T15:19:15;3.27;;;2.10;;
8230;SDS011;4156;50.908;6.974;2022-11-13T15:21:44;3.20;;;2.43;;
8230;SDS011;4156;50.908;6.974;2022-11-13T15:24:11;3.03;;;1.97;;
8230;SDS011;4156;50.908;6.974;2022-11-13T15:26:37;3.97;;;2.70;;
8230;SDS011;4156;50.908;6.974;2022-11-13T15:29:04;2.73;;;2.27;;
8230;SDS011;4156;50.908;6.974;2022-11-13T15:33:57;2.87;;;2.30;;
8230;SDS011;4156;50.908;6.974;2022-11-13T15:36:22;3.10;;;2.00;;
8230;SDS011;4156;50.908;6.974;2022-11-13T15:38:48;3.63;;;2.43;;
8230;SDS011;4156;50.908;6.974;2022-11-13T15:41:18;3.60;;;2.50;;
8230;SDS011;4156;50.908;6.974;2022-11-13T15:43:46;5.83;;;2.47;;
8230;SDS011;4156;50.908;6.974;2022-11-13T15:46:14;3.40;;;2.17;;
8230;SDS011;4156;50.908;6.974;2022-11-13T15:48:41;3.07;;;2.13;;
8230;SDS011;4156;50.908;6.974;2022-11-13T15:51:18;2.67;;;2.37;;
8230;SDS011;4156;50.908;6.974;2022-11-13T15:54:10;4.20;;;2.70;;
8230;SDS011;4156;50.908;6.974;2022-11-13T15:56:46;3.53;;;2.60;;
8230;SDS011;4156;50.908;6.974;2022-11-13T15:59:12;3.27;;;2.30;;
8230;SDS011;4156;50.908;6.974;2022-11-13T16:01:38;2.90;;;2.33;;
8230;SDS011;4156;50.908;6.974;2022-11-13T16:04:05;3.37;;;2.33;;
8230;SDS011;4156;50.908;6.974;2022-11-13T16:06:31;3.53;;;2.50;;
8230;SDS011;4156;50.908;6.974;2022-11-13T16:09:00;3.53;;;2.47;;
8230;SDS011;4156;50.908;6.974;2022-11-13T16:11:28;3.33;;;2.67;;
8230;SDS011;4156;50.908;6.974;2022-11-13T16:13:58;3.77;;;2.60;;
8230;SDS011;4156;50.908;6.974;2022-11-13T16:16:24;3.30;;;2.30;;
8230;SDS011;4156;50.908;6.974;2022-11-13T16:18:52;3.27;;;2.67;;
8230;SDS011;4156;50.908;6.974;2022-11-13T16:21:18;3.20;;;2.40;;
8230;SDS011;4156;50.908;6.974;2022-11-13T16:23:45;2.73;;;2.40;;
8230;SDS011;4156;50.908;6.974;2022-11-13T16:26:14;3.70;;;2.73;;
8230;SDS011;4156;50.908;6.974;2022-11-13T16:28:44;3.53;;;2.43;;
8230;SDS011;4156;50.908;6.974;2022-11-13T16:31:11;3.50;;;2.50;;
8230;SDS011;4156;50.908;6.974;2022-11-13T16:33:37;3.60;;;2.70;;
8230;SDS011;4156;50.908;6.974;2022-11-13T16:36:02;3.67;;;2.80;;
8230;SDS011;4156;50.908;6.974;2022-11-13T16:38:28;3.67;;;2.60;;